Terminal Aerodrome Forecast
Issued by NWS Caribou, ME

Home | Current Version | Previous Version | Text Only | Print | Product List | Glossary On
Versions: 1 2 3 4 5 6 7 8 9 10 11 12 13 14
258
FTUS41 KCAR 221120
TAFBGR
TAF
KBGR 221120Z 2212/2312 VRB03KT P6SM OVC200
     FM221800 20008G18KT P6SM OVC120
     FM222200 20008KT P6SM OVC100
     FM230300 20005KT P6SM VCSH OVC050
     FM230600 19006KT 6SM -SHRA OVC020=

USA.gov is the U.S. government's official web portal to all federal, state and local government web resources and services.